createdAt,value
2022-11-20T00:01:26.423Z,96528.34
2022-11-20T00:03:53.684Z,96531.31
2022-11-20T00:06:20.578Z,96525.88
2022-11-20T00:08:47.186Z,96528.59
2022-11-20T00:11:20.914Z,96520.69
2022-11-20T00:13:49.084Z,96525.88
2022-11-20T00:16:16.962Z,96533.22
2022-11-20T00:18:43.598Z,96543.28
2022-11-20T00:21:14.949Z,96544.91
2022-11-20T00:23:41.985Z,96539.47
2022-11-20T00:26:13.017Z,96544.91
2022-11-20T00:28:39.640Z,96550.38
2022-11-20T00:31:15.513Z,96544.91
2022-11-20T00:33:42.834Z,96548.47
2022-11-20T00:36:13.986Z,96544.09
2022-11-20T00:38:40.646Z,96553.09
2022-11-20T00:41:08.815Z,96549.28
2022-11-20T00:43:36.037Z,96560.16
2022-11-20T00:46:04.417Z,96558.53
2022-11-20T00:48:31.076Z,96563.97
2022-11-20T00:50:57.687Z,96563.97
2022-11-20T00:53:24.332Z,96562.06
2022-11-20T00:56:01.342Z,96568.59
2022-11-20T00:58:32.790Z,96566.69
2022-11-20T01:01:06.496Z,96572.94
2022-11-20T01:03:33.828Z,96572.13
2022-11-20T01:06:11.391Z,96573.22
2022-11-20T01:08:38.027Z,96571.31
2022-11-20T01:11:09.105Z,96580.28
2022-11-20T01:13:35.922Z,96583.28
2022-11-20T01:16:11.368Z,96584.91
2022-11-20T01:18:38.992Z,96582.19
2022-11-20T01:21:06.994Z,96591.44
2022-11-20T01:23:34.763Z,96596.88
2022-11-20T01:26:02.575Z,96594.16
2022-11-20T01:28:29.526Z,96597.69
2022-11-20T01:30:56.142Z,96597.69
2022-11-20T01:33:22.753Z,96596.88
2022-11-20T01:35:49.365Z,96596.88
2022-11-20T01:38:16.690Z,96596.06
2022-11-20T01:40:43.420Z,96596.06
2022-11-20T01:43:19.206Z,96594.97
2022-11-20T01:45:58.093Z,96596.06
2022-11-20T01:48:25.240Z,96595.22
2022-11-20T01:50:52.484Z,96597.94
2022-11-20T01:53:19.753Z,96595.22
2022-11-20T01:55:51.249Z,96592.50
2022-11-20T01:58:18.160Z,96595.22
2022-11-20T02:00:44.792Z,96595.22
2022-11-20T02:03:14.717Z,96590.59
2022-11-20T02:05:45.596Z,96596.06
2022-11-20T02:08:12.236Z,96597.94
2022-11-20T02:10:38.843Z,96595.22
2022-11-20T02:13:05.511Z,96596.88
2022-11-20T02:15:33.481Z,96592.25
2022-11-20T02:18:00.089Z,96596.88
2022-11-20T02:20:26.755Z,96596.88
2022-11-20T02:23:23.665Z,96603.13
2022-11-20T02:25:50.273Z,96599.59
2022-11-20T02:28:17.335Z,96597.09
2022-11-20T02:30:43.934Z,96606.09
2022-11-20T02:33:10.560Z,96601.50
2022-11-20T02:35:41.673Z,96602.53
2022-11-20T02:38:08.287Z,96603.38
2022-11-20T02:40:34.932Z,96604.22
2022-11-20T02:43:01.524Z,96611.56
2022-11-20T02:45:28.125Z,96611.56
2022-11-20T02:47:54.741Z,96612.38
2022-11-20T02:50:21.359Z,96606.94
2022-11-20T02:52:47.967Z,96617.81
2022-11-20T02:55:14.575Z,96615.91
2022-11-20T02:57:41.186Z,96615.91
2022-11-20T03:00:08.304Z,96618.63
2022-11-20T03:02:34.915Z,96615.09
2022-11-20T03:05:01.521Z,96611.56
2022-11-20T03:07:28.169Z,96617.00
2022-11-20T03:09:54.837Z,96619.72
2022-11-20T03:12:21.450Z,96618.03
2022-11-20T03:14:52.810Z,96620.75
2022-11-20T03:17:19.976Z,96618.84
2022-11-20T03:19:46.590Z,96620.75
2022-11-20T03:22:13.226Z,96625.97
2022-11-20T03:24:39.855Z,96631.63
2022-11-20T03:27:06.454Z,96635.19
2022-11-20T03:29:33.058Z,96631.63
2022-11-20T03:31:59.719Z,96626.19
2022-11-20T03:34:26.338Z,96632.47
2022-11-20T03:36:52.935Z,96631.63
2022-11-20T03:39:19.926Z,96632.47
2022-11-20T03:41:46.766Z,96631.63
2022-11-20T03:44:13.368Z,96637.91
2022-11-20T03:46:40.013Z,96633.53
2022-11-20T03:49:06.622Z,96639.81
2022-11-20T03:51:34.453Z,96639.81
2022-11-20T03:54:03.371Z,96637.06
2022-11-20T03:56:31.029Z,96643.59
2022-11-20T03:58:57.845Z,96638.16
2022-11-20T04:01:28.938Z,96647.13
2022-11-20T04:03:55.992Z,96650.69
2022-11-20T04:06:27.017Z,96651.50
2022-11-20T04:08:55.612Z,96648.78
2022-11-20T04:11:24.036Z,96646.06
2022-11-20T04:13:55.161Z,96651.50
2022-11-20T04:16:22.204Z,96649.63
2022-11-20T04:18:52.717Z,96646.06
2022-11-20T04:21:19.333Z,96647.75
2022-11-20T04:23:45.921Z,96650.69
2022-11-20T04:26:12.633Z,96651.75
2022-11-20T04:28:39.494Z,96643.59
2022-11-20T04:31:11.471Z,96645.25
2022-11-20T04:33:38.212Z,96645.25
2022-11-20T04:36:09.135Z,96646.31
2022-11-20T04:38:35.755Z,96642.53
2022-11-20T04:41:05.153Z,96643.59
2022-11-20T04:43:31.886Z,96642.53
2022-11-20T04:45:58.546Z,96647.97
2022-11-20T04:48:25.529Z,96646.06
2022-11-20T04:50:52.341Z,96651.75
2022-11-20T04:53:18.989Z,96652.59
2022-11-20T04:55:45.711Z,96649.84
2022-11-20T04:58:12.657Z,96655.31
2022-11-20T05:00:39.279Z,96655.31
2022-11-20T05:03:05.957Z,96656.38
2022-11-20T05:05:32.576Z,96659.09
2022-11-20T05:07:59.386Z,96653.66
2022-11-20T05:10:26.542Z,96646.31
2022-11-20T05:12:53.142Z,96655.31
2022-11-20T05:15:19.939Z,96655.56
2022-11-20T05:17:49.977Z,96660.16
2022-11-20T05:20:16.805Z,96667.50
2022-11-20T05:22:43.537Z,96665.88
2022-11-20T05:25:10.361Z,96662.06
2022-11-20T05:27:37.009Z,96670.22
2022-11-20T05:30:04.801Z,96664.78
2022-11-20T05:32:31.406Z,96659.34
2022-11-20T05:34:58.039Z,96661.25
2022-11-20T05:37:24.642Z,96659.34
2022-11-20T05:39:51.244Z,96658.53
2022-11-20T05:42:17.853Z,96670.22
2022-11-20T05:44:44.465Z,96665.88
2022-11-20T05:47:11.075Z,96674.84
2022-11-20T05:49:37.679Z,96671.31
2022-11-20T05:52:04.400Z,96670.47
2022-11-20T05:54:31.006Z,96674.03
2022-11-20T05:56:57.615Z,96667.75
2022-11-20T05:59:24.254Z,96673.22
2022-11-20T06:01:50.973Z,96667.75
2022-11-20T06:04:17.577Z,96661.50
2022-11-20T06:06:44.174Z,96664.22
2022-11-20T06:09:10.793Z,96665.88
2022-11-20T06:11:37.403Z,96661.50
2022-11-20T06:14:04.013Z,96660.69
2022-11-20T06:16:30.625Z,96651.69
2022-11-20T06:18:57.221Z,96647.06
2022-11-20T06:21:23.874Z,96649.81
2022-11-20T06:23:50.874Z,96656.06
2022-11-20T06:26:19.191Z,96655.25
2022-11-20T06:28:45.926Z,96660.69
2022-11-20T06:31:13.891Z,96660.69
2022-11-20T06:33:40.857Z,96656.06
2022-11-20T06:36:10.932Z,96662.31
2022-11-20T06:38:38.838Z,96659.59
2022-11-20T06:41:06.611Z,96659.84
2022-11-20T06:43:33.208Z,96651.69
2022-11-20T06:45:59.828Z,96648.16
2022-11-20T06:48:27.165Z,96659.03
2022-11-20T06:50:53.789Z,96656.56
2022-11-20T06:53:20.393Z,96664.47
2022-11-20T06:55:47.441Z,96668.28
2022-11-20T06:58:14.585Z,96662.81
2022-11-20T07:00:41.286Z,96663.09
2022-11-20T07:03:08.736Z,96672.88
2022-11-20T07:05:35.681Z,96674.78
2022-11-20T07:08:02.651Z,96686.50
2022-11-20T07:10:29.352Z,96688.38
2022-11-20T07:12:56.029Z,96685.66
2022-11-20T07:15:23.522Z,96695.72
2022-11-20T07:17:50.233Z,96697.38
2022-11-20T07:20:16.862Z,96691.94
2022-11-20T07:22:43.516Z,96693.00
2022-11-20T07:25:10.236Z,96696.53
2022-11-20T07:27:36.978Z,96702.00
2022-11-20T07:30:04.343Z,96709.31
2022-11-20T07:32:30.953Z,96706.59
2022-11-20T07:34:57.554Z,96703.88
2022-11-20T07:37:24.155Z,96714.75
2022-11-20T07:39:50.747Z,96714.75
2022-11-20T07:42:17.372Z,96716.41
2022-11-20T07:44:43.967Z,96728.13
2022-11-20T07:47:10.572Z,96716.41
2022-11-20T07:49:37.269Z,96714.50
2022-11-20T07:52:05.318Z,96725.41
2022-11-20T07:54:32.528Z,96713.69
2022-11-20T07:56:59.146Z,96718.88
2022-11-20T07:59:25.766Z,96711.78
2022-11-20T08:01:52.352Z,96720.78
2022-11-20T08:04:18.967Z,96721.59
2022-11-20T08:06:45.569Z,96710.72
2022-11-20T08:09:12.181Z,96716.97
2022-11-20T08:11:38.817Z,96714.25
2022-11-20T08:14:05.414Z,96723.00
2022-11-20T08:16:32.030Z,96712.13
2022-11-20T08:18:58.642Z,96713.75
2022-11-20T08:21:25.243Z,96718.94
2022-11-20T08:23:51.884Z,96719.78
2022-11-20T08:26:18.497Z,96717.88
2022-11-20T08:28:45.219Z,96723.09
2022-11-20T08:31:11.841Z,96722.84
2022-11-20T08:33:38.465Z,96721.75
2022-11-20T08:36:05.935Z,96717.97
2022-11-20T08:38:32.662Z,96721.25
2022-11-20T08:41:00.177Z,96719.38
2022-11-20T08:43:26.781Z,96717.47
2022-11-20T08:45:53.397Z,96715.56
2022-11-20T08:48:19.993Z,96713.19
2022-11-20T08:50:46.617Z,96723.81
2022-11-20T08:53:13.341Z,96726.28
2022-11-20T08:55:39.953Z,96723.31
2022-11-20T08:58:09.813Z,96724.72
2022-11-20T09:00:36.465Z,96716.91
2022-11-20T09:03:03.104Z,96721.84
2022-11-20T09:05:29.835Z,96713.16
2022-11-20T09:07:59.475Z,96715.16
2022-11-20T09:10:29.139Z,96723.63
2022-11-20T09:12:55.813Z,96721.22
2022-11-20T09:15:22.449Z,96718.88
2022-11-20T09:17:56.387Z,96716.72
2022-11-20T09:20:23.011Z,96721.91
2022-11-20T09:22:49.611Z,96711.00
2022-11-20T09:25:16.296Z,96714.88
2022-11-20T09:27:42.913Z,96719.84
2022-11-20T09:30:09.852Z,96731.03
2022-11-20T09:32:36.668Z,96725.59
2022-11-20T09:35:03.311Z,96730.53
2022-11-20T09:37:29.929Z,96733.59
2022-11-20T09:39:56.531Z,96743.41
2022-11-20T09:42:25.674Z,96737.44
2022-11-20T09:45:01.167Z,96735.56
2022-11-20T09:47:57.641Z,96737.19
2022-11-20T09:50:30.280Z,96744.03
2022-11-20T09:53:09.468Z,96736.19
2022-11-20T09:55:36.206Z,96734.88
2022-11-20T09:58:02.806Z,96731.88
2022-11-20T10:00:29.419Z,96743.34
2022-11-20T10:03:07.252Z,96735.78
2022-11-20T10:05:43.422Z,96740.97
2022-11-20T10:08:26.149Z,96733.34
2022-11-20T10:11:07.231Z,96734.19
2022-11-20T10:14:29.284Z,96728.47
2022-11-20T10:17:32.896Z,96729.84
2022-11-20T10:20:23.104Z,96733.09
2022-11-20T10:23:25.811Z,96728.97
2022-11-20T10:26:14.068Z,96729.25
2022-11-20T10:29:02.411Z,96728.16
2022-11-20T10:31:34.502Z,96732.78
2022-11-20T10:34:12.132Z,96722.97
2022-11-20T10:36:47.606Z,96719.16
2022-11-20T10:39:34.994Z,96716.44
2022-11-20T10:42:01.612Z,96713.47
2022-11-20T10:44:29.201Z,96714.28
2022-11-20T10:46:55.817Z,96719.72
2022-11-20T10:49:22.698Z,96715.09
2022-11-20T10:52:05.804Z,96717.84
2022-11-20T10:54:52.835Z,96707.75
2022-11-20T10:57:47.055Z,96715.94
2022-11-20T11:00:13.947Z,96713.19
2022-11-20T11:02:46.428Z,96713.19
2022-11-20T11:05:26.285Z,96728.47
2022-11-20T11:07:55.297Z,96716.50
2022-11-20T11:10:32.197Z,96713.78
2022-11-20T11:12:58.795Z,96722.75
2022-11-20T11:15:37.212Z,96709.13
2022-11-20T11:18:04.293Z,96699.88
2022-11-20T11:20:30.921Z,96695.25
2022-11-20T11:22:58.776Z,96689.81
2022-11-20T11:25:28.184Z,96688.72
2022-11-20T11:27:55.718Z,96695.03
2022-11-20T11:30:22.744Z,96684.97
2022-11-20T11:32:49.380Z,96680.34
2022-11-20T11:35:28.407Z,96688.25
2022-11-20T11:38:03.070Z,96683.88
2022-11-20T11:40:29.692Z,96668.59
2022-11-20T11:42:58.828Z,96665.06
2022-11-20T11:45:25.458Z,96652.00
2022-11-20T11:47:52.085Z,96656.63
2022-11-20T11:50:20.959Z,96646.28
2022-11-20T11:53:05.398Z,96635.66
2022-11-20T11:56:08.440Z,96634.84
2022-11-20T11:58:41.030Z,96621.22
2022-11-20T12:01:49.820Z,96613.84
2022-11-20T12:04:38.589Z,96605.69
2022-11-20T12:07:46.121Z,96593.13
2022-11-20T12:10:22.882Z,96587.69
2022-11-20T12:12:52.853Z,96584.16
2022-11-20T12:15:32.791Z,96584.97
2022-11-20T12:17:59.409Z,96585.78
2022-11-20T12:20:29.685Z,96578.44
2022-11-20T12:23:14.766Z,96575.72
2022-11-20T12:25:41.366Z,96571.91
2022-11-20T12:28:29.577Z,96571.09
2022-11-20T12:31:06.194Z,96572.16
2022-11-20T12:34:17.989Z,96558.53
2022-11-20T12:37:01.865Z,96552.28
2022-11-20T12:39:33.593Z,96537.00
2022-11-20T12:42:15.862Z,96549.53
2022-11-20T12:44:54.468Z,96556.91
2022-11-20T12:47:48.373Z,96556.06
2022-11-20T12:50:42.933Z,96557.13
2022-11-20T12:53:40.013Z,96562.59
2022-11-20T12:56:25.330Z,96559.03
2022-11-20T12:59:07.117Z,96545.41
2022-11-20T13:01:49.095Z,96530.16
2022-11-20T13:04:37.512Z,96524.69
2022-11-20T13:07:06.427Z,96538.31
2022-11-20T13:09:33.477Z,96536.69
2022-11-20T13:12:23.909Z,96536.69
2022-11-20T13:14:59.550Z,96535.03
2022-11-20T13:17:36.993Z,96544.03
2022-11-20T13:20:03.617Z,96541.56
2022-11-20T13:22:51.269Z,96546.19
2022-11-20T13:25:32.975Z,96548.91
2022-11-20T13:28:20.177Z,96550.28
2022-11-20T13:30:50.525Z,96554.91
2022-11-20T13:33:36.627Z,96546.13
2022-11-20T13:36:04.653Z,96540.69
2022-11-20T13:38:44.245Z,96544.50
2022-11-20T13:41:10.851Z,96539.03
2022-11-20T13:43:43.400Z,96546.66
2022-11-20T13:46:10.322Z,96540.38
2022-11-20T13:48:41.187Z,96537.66
2022-11-20T13:51:18.611Z,96536.03
2022-11-20T13:54:06.745Z,96525.13
2022-11-20T13:56:54.508Z,96523.50
2022-11-20T13:59:48.030Z,96523.75
2022-11-20T14:02:17.822Z,96521.84
2022-11-20T14:04:49.306Z,96513.94
2022-11-20T14:07:19.787Z,96513.94
2022-11-20T14:09:56.514Z,96516.91
2022-11-20T14:12:25.014Z,96507.06
2022-11-20T14:14:53.043Z,96516.06
2022-11-20T14:17:24.267Z,96514.44
2022-11-20T14:19:51.604Z,96520.69
2022-11-20T14:22:22.826Z,96514.44
2022-11-20T14:24:49.954Z,96515.25
2022-11-20T14:27:20.632Z,96514.69
2022-11-20T14:29:48.041Z,96506.78
2022-11-20T14:32:22.585Z,96495.31
2022-11-20T14:34:50.022Z,96495.31
2022-11-20T14:37:22.573Z,96497.50
2022-11-20T14:39:58.122Z,96489.31
2022-11-20T14:42:26.098Z,96477.59
2022-11-20T14:44:55.229Z,96478.69
2022-11-20T14:47:39.963Z,96481.41
2022-11-20T14:50:13.599Z,96476.78
2022-11-20T14:52:40.238Z,96474.06
2022-11-20T14:55:08.556Z,96465.31
2022-11-20T14:57:36.414Z,96464.50
2022-11-20T15:00:15.248Z,96459.31
2022-11-20T15:02:46.272Z,96468.56
2022-11-20T15:05:12.976Z,96456.84
2022-11-20T15:07:41.334Z,96462.56
2022-11-20T15:10:09.493Z,96458.75
2022-11-20T15:12:38.430Z,96456.03
2022-11-20T15:15:05.432Z,96454.38
2022-11-20T15:17:32.627Z,96450.84
2022-11-20T15:20:00.718Z,96452.75
2022-11-20T15:22:27.347Z,96453.81
2022-11-20T15:24:53.969Z,96453.00
2022-11-20T15:27:20.573Z,96455.72
2022-11-20T15:29:47.171Z,96456.81
2022-11-20T15:32:13.952Z,96446.97
2022-11-20T15:34:40.618Z,96439.88
2022-11-20T15:37:07.227Z,96439.06
2022-11-20T15:39:33.846Z,96442.88
2022-11-20T15:42:00.437Z,96433.88
2022-11-20T15:44:27.051Z,96442.88
2022-11-20T15:46:53.651Z,96451.03
2022-11-20T15:49:20.249Z,96452.13
2022-11-20T15:51:48.672Z,96443.94
2022-11-20T15:54:19.087Z,96446.94
2022-11-20T15:56:45.683Z,96437.94
2022-11-20T15:59:12.297Z,96445.28
2022-11-20T16:01:38.935Z,96446.13
2022-11-20T16:04:06.470Z,96438.22
2022-11-20T16:06:33.078Z,96436.56
2022-11-20T16:08:59.701Z,96433.84
2022-11-20T16:11:26.304Z,96427.59
2022-11-20T16:13:52.896Z,96441.19
2022-11-20T16:16:23.821Z,96449.34
2022-11-20T16:18:50.660Z,96449.34
2022-11-20T16:21:17.270Z,96456.91
2022-11-20T16:23:43.900Z,96472.19
2022-11-20T16:26:11.718Z,96477.63
2022-11-20T16:28:38.338Z,96470.50
2022-11-20T16:31:17.652Z,96477.03
2022-11-20T16:33:44.253Z,96485.22
2022-11-20T16:36:14.563Z,96488.75
2022-11-20T16:38:42.129Z,96489.56
2022-11-20T16:41:08.922Z,96478.69
2022-11-20T16:43:35.526Z,96471.59
2022-11-20T16:46:02.324Z,96473.50
2022-11-20T16:48:28.929Z,96474.56
2022-11-20T16:50:55.525Z,96473.50
2022-11-20T16:53:22.386Z,96473.50
2022-11-20T16:55:49.001Z,96475.41
2022-11-20T16:58:15.801Z,96481.09
2022-11-20T17:00:46.902Z,96475.66
2022-11-20T17:03:16.825Z,96481.94
2022-11-20T17:05:43.453Z,96487.38
2022-11-20T17:08:10.088Z,96492.81
2022-11-20T17:10:36.857Z,96483.00
2022-11-20T17:13:03.475Z,96489.53
2022-11-20T17:15:30.083Z,96494.16
2022-11-20T17:17:56.685Z,96497.69
2022-11-20T17:20:23.288Z,96515.09
2022-11-20T17:22:49.916Z,96518.09
2022-11-20T17:25:16.521Z,96530.63
2022-11-20T17:27:43.117Z,96537.72
2022-11-20T17:30:09.782Z,96537.97
2022-11-20T17:32:36.376Z,96544.22
2022-11-20T17:35:02.972Z,96539.88
2022-11-20T17:37:29.595Z,96538.22
2022-11-20T17:39:56.272Z,96532.78
2022-11-20T17:42:22.878Z,96529.22
2022-11-20T17:44:49.496Z,96531.13
2022-11-20T17:47:16.101Z,96535.72
2022-11-20T17:49:42.727Z,96530.53
2022-11-20T17:52:09.353Z,96527.81
2022-11-20T17:54:35.993Z,96525.09
2022-11-20T17:57:02.622Z,96524.03
2022-11-20T17:59:29.216Z,96525.09
2022-11-20T18:01:59.644Z,96528.91
2022-11-20T18:04:28.874Z,96544.97
2022-11-20T18:06:55.521Z,96535.72
2022-11-20T18:09:22.139Z,96526.50
2022-11-20T18:11:48.742Z,96539.03
2022-11-20T18:14:16.310Z,96537.97
2022-11-20T18:16:47.522Z,96534.97
2022-11-20T18:19:16.788Z,96538.25
2022-11-20T18:21:43.409Z,96541.56
2022-11-20T18:24:10.040Z,96563.88
2022-11-20T18:26:42.787Z,96583.81
2022-11-20T18:29:11.045Z,96583.81
2022-11-20T18:31:37.694Z,96567.25
2022-11-20T18:34:04.949Z,96577.31
2022-11-20T18:36:31.579Z,96574.06
2022-11-20T18:38:58.769Z,96563.75
2022-11-20T18:41:26.833Z,96572.72
2022-11-20T18:43:53.513Z,96578.94
2022-11-20T18:46:20.207Z,96575.63
2022-11-20T18:48:46.878Z,96567.25
2022-11-20T18:51:13.516Z,96575.16
2022-11-20T18:53:45.868Z,96561.78
2022-11-20T18:56:13.854Z,96557.16
2022-11-20T18:58:41.120Z,96562.66
2022-11-20T19:01:07.883Z,96573.28
2022-11-20T19:03:34.695Z,96590.22
2022-11-20T19:06:01.311Z,96588.88
2022-11-20T19:08:27.971Z,96582.91
2022-11-20T19:10:54.605Z,96580.19
2022-11-20T19:13:21.265Z,96583.47
2022-11-20T19:15:47.946Z,96572.84
2022-11-20T19:18:14.555Z,96581.84
2022-11-20T19:20:41.153Z,96583.47
2022-11-20T19:23:07.791Z,96588.09
2022-11-20T19:25:38.089Z,96593.28
2022-11-20T19:28:05.246Z,96599.56
2022-11-20T19:30:32.741Z,96606.59
2022-11-20T19:32:59.354Z,96618.84
2022-11-20T19:35:25.992Z,96618.84
2022-11-20T19:37:52.607Z,96639.84
2022-11-20T19:40:19.207Z,96629.50
2022-11-20T19:42:45.845Z,96640.75
2022-11-20T19:45:12.476Z,96630.94
2022-11-20T19:48:06.831Z,96636.38
2022-11-20T19:50:25.677Z,96646.19
2022-11-20T19:52:57.379Z,96650.00
2022-11-20T19:55:25.439Z,96646.44
2022-11-20T19:57:52.190Z,96660.06
2022-11-20T20:00:26.673Z,96655.44
2022-11-20T20:02:57.669Z,96669.31
2022-11-20T20:05:24.357Z,96676.06
2022-11-20T20:07:50.968Z,96668.97
2022-11-20T20:10:17.585Z,96670.88
2022-11-20T20:12:44.230Z,96675.25
2022-11-20T20:15:10.854Z,96675.50
2022-11-20T20:17:37.538Z,96679.88
2022-11-20T20:20:04.473Z,96680.13
2022-11-20T20:22:31.105Z,96680.38
2022-11-20T20:24:57.737Z,96686.91
2022-11-20T20:27:24.388Z,96687.47
2022-11-20T20:29:51.020Z,96680.38
2022-11-20T20:32:17.633Z,96679.88
2022-11-20T20:34:44.401Z,96687.31
2022-11-20T20:37:11.036Z,96693.63
2022-11-20T20:39:37.658Z,96707.56
2022-11-20T20:42:04.277Z,96712.16
2022-11-20T20:44:30.913Z,96723.31
2022-11-20T20:46:57.542Z,96724.66
2022-11-20T20:49:24.334Z,96730.09
2022-11-20T20:51:51.222Z,96726.56
2022-11-20T20:54:17.874Z,96726.56
2022-11-20T20:56:44.512Z,96730.34
2022-11-20T20:59:11.121Z,96727.63
2022-11-20T21:01:37.817Z,96721.94
2022-11-20T21:04:04.481Z,96734.47
2022-11-20T21:06:31.118Z,96730.09
2022-11-20T21:08:57.971Z,96717.31
2022-11-20T21:11:24.596Z,96723.31
2022-11-20T21:13:51.219Z,96750.31
2022-11-20T21:16:18.529Z,96748.19
2022-11-20T21:18:45.430Z,96749.81
2022-11-20T21:21:12.856Z,96752.28
2022-11-20T21:23:39.489Z,96757.47
2022-11-20T21:26:06.993Z,96775.47
2022-11-20T21:28:34.652Z,96770.84
2022-11-20T21:31:11.214Z,96772.50
2022-11-20T21:33:47.372Z,96766.22
2022-11-20T21:36:15.509Z,96762.41
2022-11-20T21:38:42.130Z,96769.50
2022-11-20T21:41:09.660Z,96779.34
2022-11-20T21:43:36.288Z,96784.81
2022-11-20T21:46:06.417Z,96792.97
2022-11-20T21:48:33.608Z,96784.56
2022-11-20T21:51:07.252Z,96786.75
2022-11-20T21:53:34.037Z,96786.25
2022-11-20T21:56:00.678Z,96777.25
2022-11-20T21:58:27.353Z,96774.53
2022-11-20T22:00:53.995Z,96775.34
2022-11-20T22:03:20.620Z,96768.00
2022-11-20T22:05:56.701Z,96768.00
2022-11-20T22:08:24.013Z,96765.28
2022-11-20T22:11:00.258Z,96751.41
2022-11-20T22:13:27.142Z,96744.06
2022-11-20T22:16:00.758Z,96745.72
2022-11-20T22:18:27.726Z,96743.81
2022-11-20T22:20:54.338Z,96738.38
2022-11-20T22:23:20.975Z,96739.19
2022-11-20T22:25:47.595Z,96738.13
2022-11-20T22:28:14.236Z,96738.94
2022-11-20T22:30:40.870Z,96731.59
2022-11-20T22:33:13.085Z,96735.13
2022-11-20T22:35:40.280Z,96740.31
2022-11-20T22:38:06.919Z,96742.22
2022-11-20T22:40:33.557Z,96738.41
2022-11-20T22:43:00.184Z,96731.88
2022-11-20T22:45:26.817Z,96741.72
2022-11-20T22:47:53.438Z,96739.81
2022-11-20T22:50:20.053Z,96744.78
2022-11-20T22:52:46.675Z,96741.22
2022-11-20T22:55:16.253Z,96736.84
2022-11-20T22:57:43.168Z,96731.63
2022-11-20T23:00:10.283Z,96726.19
2022-11-20T23:02:36.898Z,96728.91
2022-11-20T23:05:03.540Z,96743.59
2022-11-20T23:07:30.224Z,96735.69
2022-11-20T23:09:56.873Z,96732.16
2022-11-20T23:12:23.517Z,96722.31
2022-11-20T23:14:50.131Z,96735.13
2022-11-20T23:17:16.765Z,96732.66
2022-11-20T23:19:43.491Z,96740.84
2022-11-20T23:22:10.121Z,96737.53
2022-11-20T23:24:36.746Z,96739.19
2022-11-20T23:27:03.370Z,96747.38
2022-11-20T23:29:30.034Z,96745.47
2022-11-20T23:31:56.758Z,96749.00
2022-11-20T23:34:23.411Z,96743.81
2022-11-20T23:36:50.020Z,96738.13
2022-11-20T23:39:16.648Z,96744.63
2022-11-20T23:41:43.288Z,96728.28
2022-11-20T23:44:09.900Z,96726.66
2022-11-20T23:46:36.506Z,96737.28
2022-11-20T23:49:03.127Z,96738.13
2022-11-20T23:51:29.758Z,96743.56
2022-11-20T23:53:59.382Z,96738.13
2022-11-20T23:56:28.451Z,96726.38
2022-11-20T23:58:55.065Z,96717.41
